Bodega Marine Reserve, California Weather observations

Data are for 10 minute period ending at time listed.
 Day   Time   Solar   Ave.   Ave.  Ave.  Vector  Max.   Baro.   Total    
  of    of     Rad.   Air    Rel.  Wind   Wind   Wind  Press.  Precip.   
Year   Day            Temp.  Hum.  Speed  Dir.   Gust                    
2016   (PST)  Kw/m2    F      %     mph   deg.    mph    mb.     in.     
-------------------------------------------------------------------------
 122    2:10   0.00   44.6    90    4.1   279     5.3   1007.1    0.00 
 122    2:20   0.00   45.5    90    2.6   285     3.9   1007.1    0.00 
 122    2:30   0.00   44.2    90    2.1   310     3.1   1007.1    0.00 
 122    2:40   0.00   44.9    92    0.4    10     1.8   1007.1    0.00 
 122    2:50   0.00   46.4    91    0.8   321     2.0   1007.1    0.00 
 122    3:00   0.00   46.7    91    0.3    42     1.1   1007.1    0.00 
 122    3:10   0.00   46.8    91    1.0    92     2.4   1006.8    0.00 
 122    3:20   0.00   46.6    91    2.3   130     2.8   1006.8    0.00 
 122    3:30   0.00   46.1    90    0.7   141     2.1   1006.8    0.00 
 122    3:40   0.00   45.5    91    0.9   150     1.9   1006.8    0.00 
 122    3:50   0.00   44.9    91    0.8   223     2.4   1006.8    0.00 
 122    4:00   0.00   43.8    91    0.6   130     1.8   1006.8    0.00 
 122    4:10   0.00   44.9    91    1.4   120     2.0   1006.8    0.00 
 122    4:20   0.00   44.5    92    1.0   120     2.5   1006.8    0.00 
 122    4:30   0.00   45.5    92    0.0     0     0.0   1006.8    0.00 
 122    4:40   0.00   44.0    91    0.4   239     1.3   1006.8    0.00 
 122    4:50   0.00   44.4    93    0.9    94     2.1   1006.8    0.00 
 122    5:00   0.00   44.6    92    1.4   111     2.0   1006.8    0.00 
 122    5:10   0.00   46.3    93    1.8   121     2.3   1006.8    0.00 
 122    5:20   0.00   46.2    92    2.7   144     3.8   1006.8    0.00 
 122    5:30   0.00   45.6    92    2.3   138     3.3   1006.8    0.00 
 122    5:40   0.00   45.7    92    2.7   139     4.0   1006.8    0.00 
 122    5:50   0.00   46.5    92    2.2   138     3.0   1006.4    0.00 
 122    6:00   0.00   45.8    92    1.3   156     2.9   1006.4    0.00 
 122    6:10   0.00   45.9    92    2.7   146     4.1   1006.8    0.00 
 122    6:20   0.00   44.7    92    1.8   167     3.5   1006.8    0.00 
 122    6:30   0.01   44.3    92    1.2   192     2.6   1006.8    0.00 
 122    6:40   0.02   44.4    92    2.2   134     3.4   1006.8    0.00 
 122    6:50   0.05   45.1    93    1.9   124     2.6   1006.8    0.00 
 122    7:00   0.07   47.3    93    1.9   117     2.6   1006.8    0.00 
 122    7:10   0.09   48.2    92    2.4   132     3.7   1006.8    0.00 
 122    7:20   0.12   49.7    92    2.4   119     4.0   1006.8    0.00 
 122    7:30   0.15   51.5    92    1.9   110     2.9   1006.8    0.00 
 122    7:40   0.18   52.6    90    1.0    37     2.3   1006.8    0.00 
 122    7:50   0.21   53.6    90    2.2   304     3.3   1006.8    0.00 
 122    8:00   0.24   55.8    89    1.1   238     2.8   1006.8    0.00 
 122    8:10   0.27   55.0    86    3.0   140     4.7   1007.1    0.00 
 122    8:20   0.31   55.1    84    3.0   134     6.3   1007.1    0.00 
 122    8:30   0.34   54.9    80    7.2   140     8.7   1007.1    0.00 
 122    8:40   0.37   54.8    81    6.9   147     8.2   1007.1    0.00 
 122    8:50   0.41   55.2    81    6.5   145     7.7   1007.5    0.00 
 122    9:00   0.44   55.7    80    6.3   140     7.7   1007.5    0.00 
 122    9:10   0.47   56.2    78    5.4   130     8.0   1007.5    0.00 
 122    9:20   0.50   57.8    75    4.2   126     6.2   1007.5    0.00 
 122    9:30   0.53   58.7    71    5.5   130     7.5   1007.5    0.00 
 122    9:40   0.55   58.9    70    5.5   130     7.5   1007.5    0.00 
 122    9:50   0.58   59.8    67    4.9   126     6.3   1007.5    0.00 
 122   10:00   0.61   59.9    67    4.3   124     6.0   1007.5    0.00 
 122   10:10   0.64   60.0    68    4.2   129     6.1   1007.5    0.00 
 122   10:20   0.66   60.0    69    4.0   134     5.8   1007.8    0.00 
 122   10:30   0.69   60.8    67    4.1   128     6.8   1007.8    0.00 
 122   10:40   0.71   63.1    63    3.7   125     5.8   1007.8    0.00 
 122   10:50   0.73   63.1    60    3.0   134     4.7   1007.8    0.00 
 122   11:00   0.75   64.9    58    1.9   182     4.3   1007.8    0.00 
 122   11:10   0.77   68.4    54    3.2   177     7.6   1007.8    0.00 
 122   11:20   0.79   70.9    50    2.7   181     6.4   1008.1    0.00 
 122   11:30   0.81   69.4    51    4.5   123     9.1   1008.1    0.00 
 122   11:40   0.82   65.4    58    4.5   133     6.3   1008.1    0.00 
 122   11:50   0.83   63.1    63    4.8   138     6.9   1008.1    0.00 
 122   12:00   0.85   63.1    64    4.0   131     6.0   1008.1    0.00 
 122   12:10   0.86   64.7    62    4.8   136     6.5   1008.1    0.00 
 122   12:20   0.86   63.7    63    5.5   132     7.5   1008.1    0.00 
 122   12:30   0.88   64.1    64    4.5   124     6.8   1008.1    0.00 
 122   12:40   0.88   66.3    58    5.0   136    10.9   1008.1    0.00 
 122   12:50   0.89   66.3    57    5.8   123     9.9   1008.1    0.00 
 122   13:00   0.89   65.0    59    5.8   129     8.7   1008.1    0.00 
 122   13:10   0.89   63.1    65    5.2   117     8.5   1008.1    0.00 
 122   13:20   0.89   62.4    65    5.5   122     7.8   1008.1    0.00 
 122   13:30   0.89   64.0    62    4.8   106     7.5   1008.1    0.00 
 122   13:40   0.89   64.0    60    4.3   205    12.7   1008.5    0.00 
 122   13:50   0.88   63.4    61    4.4   248     8.7   1008.5    0.00 
 122   14:00   0.88   61.8    63    4.1   257     8.0   1008.5    0.00 
 122   14:10   0.85   61.4    64    4.9   281     9.9   1008.5    0.00 
 122   14:20   0.86   61.5    64    5.1   285     7.4   1008.5    0.00 
 122   14:30   0.85   62.4    62    5.8   273     9.4   1008.5    0.00 
 122   14:40   0.83   62.7    61    6.0   291     9.4   1008.8    0.00 
 122   14:50   0.82   63.5    60    7.0   278    10.3   1008.8    0.00 
 122   15:00   0.80   63.9    59    7.2   285    10.3   1008.8    0.00 
 122   15:10   0.79   64.6    56    6.7   288    12.3   1008.8    0.00 
 122   15:20   0.77   64.6    55    5.8   297    10.4   1008.8    0.00 
 122   15:30   0.17   65.2    54    5.3   289     9.4   1008.8    0.00 
 122   15:40   0.06   65.6    53    5.2   285     9.1   1008.8    0.00 
 122   15:50   0.06   65.7    52    3.6   277     7.8   1008.8    0.00 
 122   16:00   0.52   65.8    52    3.5   250     6.8   1008.8    0.00 
 122   16:10   0.66   65.4    53    3.1   260     5.3   1008.8    0.00 
 122   16:20   0.62   64.3    59    3.9   182    10.2   1008.8    0.00 
 122   16:30   0.19   63.7    60    3.3   212     5.5   1008.8    0.00 
 122   16:40   0.47   65.2    54    3.0   261     5.8   1008.8    0.00 
 122   16:50   0.47   65.9    54    3.8   242     5.8   1008.8    0.00 
 122   17:00   0.52   66.0    56    4.8   221     9.5   1008.8    0.00 
 122   17:10   0.38   63.4    62    6.5   195     9.7   1009.1    0.00 
 122   17:20   0.40   62.5    64    7.0   196     9.9   1009.1    0.00 
 122   17:30   0.40   62.7    62    6.2   204     9.1   1009.1    0.00 
 122   17:40   0.27   63.8    58    4.2   215     9.1   1009.1    0.00 
 122   17:50   0.07   63.7    59    5.5   207     8.8   1009.1    0.00 
 122   18:00   0.32   62.6    62    6.0   196     8.6   1009.1    0.00 
 122   18:10   0.30   62.2    64    7.1   198    11.0   1009.1    0.00 
 122   18:20   0.27   61.4    65    7.9   195    11.0   1009.1    0.00 
 122   18:30   0.24   61.1    65    8.1   196    12.2   1009.1    0.00 
 122   18:40   0.21   60.2    66    8.7   193    11.3   1009.1    0.00 
 122   18:50   0.18   59.6    67    8.5   194    11.0   1009.1    0.00 
 122   19:00   0.15   58.7    68    8.5   191    11.5   1009.1    0.00 
 122   19:10   0.12   57.9    70    8.8   191    12.3   1009.1    0.00 
 122   19:20   0.09   57.0    71    8.0   186    13.7   1009.1    0.00 
 122   19:30   0.07   56.3    72    6.4   180    10.4   1009.1    0.00 
 122   19:40   0.05   55.8    74    4.6   130     8.9   1009.5    0.00 
 122   19:50   0.03   55.0    76    4.0   134     6.3   1009.5    0.00 
 122   20:00   0.01   54.3    79    4.6   130     6.9   1009.5    0.00 
 122   20:10   0.00   53.8    82    5.7   133     7.4   1009.1    0.00 
 122   20:20   0.00   53.5    84    4.7   131     7.2   1009.5    0.00 
 122   20:30   0.00   53.5    85    5.9   132     9.6   1009.5    0.00 
 122   20:40   0.00   53.3    86    6.1   134    11.0   1009.8    0.00 
 122   20:50   0.00   53.1    87    9.7   158    16.0   1009.8    0.00 
 122   21:00   0.00   53.1    88   11.9   166    16.5   1009.8    0.00 
 122   21:10   0.00   53.3    89   13.4   168    20.1   1009.8    0.00 
 122   21:20   0.00   53.2    89   12.4   166    18.4   1010.2    0.00 
 122   21:30   0.00   52.8    90   12.3   164    17.2   1010.2    0.00 
 122   21:40   0.00   52.6    90   12.4   168    18.6   1010.2    0.00 
 122   21:50   0.00   52.3    91   12.6   166    18.3   1010.5    0.00 
 122   22:00   0.00   51.9    92   13.1   165    19.0   1010.5    0.00 
 122   22:10   100.00  99999.0   99999  99999.0   99999   99999.0   99999.0   99999.00 
 122   22:20   100.00  99999.0   99999  99999.0   99999   99999.0   99999.0   99999.00 
 122   22:30   100.00  99999.0   99999  99999.0   99999   99999.0   99999.0   99999.00 
 122   22:40   100.00  99999.0   99999  99999.0   99999   99999.0   99999.0   99999.00 
 122   22:50   100.00  99999.0   99999  99999.0   99999   99999.0   99999.0   99999.00 
 122   23:00   0.00   51.2    94   11.2   149    16.2   1011.2    0.00 
 122   23:10   0.00   51.1    94    9.0   145    12.6   1011.2    0.00 
 122   23:20   0.00   51.1    94   10.2   144    14.7   1011.2    0.00 
 122   23:30   0.00   51.1    95   12.2   151    16.9   1011.5    0.00 
 122   23:40   0.00   51.1    95   11.8   161    19.9   1011.5    0.00 
 122   23:50   0.00   51.3    95   12.6   154    17.8   1011.5    0.00 
 123    0:00   0.00   51.4    95   11.6   151    16.3   1011.5    0.00 
 123    0:10   0.00   51.5    95   13.2   152    18.0   1011.5    0.00 
 123    0:20   0.00   51.5    95   12.0   151    15.5   1011.5    0.00 
 123    0:30   0.00   51.4    95   11.5   152    16.1   1011.9    0.00 
 123    0:40   0.00   51.4    95   10.8   151    14.8   1011.9    0.00 
 123    0:50   0.00   51.4    95   11.0   150    15.5   1011.9    0.00 
 123    1:00   0.00   51.4    95   10.5   152    14.5   1011.9    0.00 
 123    1:10   0.00   51.4    95   10.5   151    15.5   1011.9    0.00 
 123    1:20   0.00   51.4    95    8.2   155    13.5   1012.2    0.00 
 123    1:30   0.00   51.4    95    8.6   165    12.4   1012.2    0.00 
 123    1:40   0.00   51.4    95    6.7   164    11.5   1012.2    0.00 
 123    1:50   0.00   51.3    95    7.3   163    12.4   1012.2    0.00 
 123    2:00   0.00   51.2    95    7.2   175    11.6   1012.2    0.00 

Return to Bodega Marine Reserve graphs page.


Western Regional Climate Center,wrcc@dri.edu